Surprise, Arizona
Current Conditions -  °F | °C
As of 8:47 AM on Friday 21 Nov 2014 (Local Time) from KGEU Reporting Station
Broken Clouds Broken Clouds  
Wind Chill: 54°   Ceiling: 20000
Heat Index: 54°   Visibility: 20mi
Dew Point: 30°   Wind: 0mph
Humidity: 41%   Direction: NA
Pressure: 29.94"   Gusts: NA
Location:  33.64°N, 112.32°W
Report Text: KGEU 211547Z 00000KT 20SM SCT150 BKN200 12/M01 A2994
Loading
Personal Weather Stations






























Interactive Weather Map New forecast layout! Learn more

10-Day Weather Forecast

Advertisements
Track Severe Weather on mobile